createdAt,value
2023-01-04T00:01:56.465Z,6.60
2023-01-04T00:04:24.174Z,6.50
2023-01-04T00:06:51.155Z,6.50
2023-01-04T00:09:18.145Z,6.50
2023-01-04T00:11:44.989Z,6.60
2023-01-04T00:14:12.191Z,6.60
2023-01-04T00:16:39.085Z,6.60
2023-01-04T00:19:06.061Z,6.60
2023-01-04T00:21:32.954Z,6.50
2023-01-04T00:24:01.401Z,6.50
2023-01-04T00:26:31.172Z,6.40
2023-01-04T00:29:02.761Z,6.40
2023-01-04T00:31:30.324Z,6.60
2023-01-04T00:33:59.687Z,6.60
2023-01-04T00:36:27.503Z,6.80
2023-01-04T00:39:08.403Z,7.00
2023-01-04T00:42:00.125Z,7.00
2023-01-04T00:44:28.229Z,7.00
2023-01-04T00:46:55.305Z,7.00
2023-01-04T00:49:22.257Z,7.00
2023-01-04T00:51:49.280Z,7.10
2023-01-04T00:54:16.672Z,7.10
2023-01-04T00:56:44.410Z,7.10
2023-01-04T00:59:13.796Z,7.20
2023-01-04T01:01:42.285Z,7.10
2023-01-04T01:04:12.285Z,7.20
2023-01-04T01:06:39.287Z,7.20
2023-01-04T01:09:06.143Z,7.20
2023-01-04T01:11:33.232Z,7.20
2023-01-04T01:14:00.151Z,7.20
2023-01-04T01:16:52.968Z,7.20
2023-01-04T01:19:14.229Z,7.20
2023-01-04T01:21:41.164Z,7.30
2023-01-04T01:24:10.148Z,7.30
2023-01-04T01:26:37.156Z,7.40
2023-01-04T01:29:04.043Z,7.40
2023-01-04T01:31:30.963Z,7.40
2023-01-04T01:33:58.047Z,7.50
2023-01-04T01:36:26.574Z,7.50
2023-01-04T01:38:54.762Z,7.50
2023-01-04T01:41:23.099Z,7.40
2023-01-04T01:43:57.398Z,7.50
2023-01-04T01:46:33.724Z,7.50
2023-01-04T01:49:22.736Z,7.60
2023-01-04T01:51:50.292Z,7.60
2023-01-04T01:54:21.704Z,7.60
2023-01-04T01:56:51.299Z,7.70
2023-01-04T01:59:19.701Z,7.70
2023-01-04T02:01:47.071Z,7.70
2023-01-04T02:04:15.508Z,7.70
2023-01-04T02:06:48.008Z,7.70
2023-01-04T02:09:15.809Z,7.70
2023-01-04T02:11:42.786Z,7.80
2023-01-04T02:14:29.043Z,7.70
2023-01-04T02:17:15.023Z,7.80
2023-01-04T02:19:41.890Z,7.80
2023-01-04T02:22:33.770Z,7.80
2023-01-04T02:25:00.655Z,7.80
2023-01-04T02:27:33.438Z,7.90
2023-01-04T02:30:12.617Z,7.90
2023-01-04T02:33:02.876Z,7.80
2023-01-04T02:35:47.089Z,7.90
2023-01-04T02:38:46.375Z,7.90
2023-01-04T02:41:26.936Z,7.80
2023-01-04T02:44:23.672Z,7.70
2023-01-04T02:47:02.034Z,7.70
2023-01-04T02:49:47.362Z,7.60
2023-01-04T02:52:14.696Z,7.60
2023-01-04T02:54:44.710Z,7.50
2023-01-04T02:57:36.974Z,7.40
2023-01-04T03:00:15.120Z,7.40
2023-01-04T03:03:06.447Z,7.30
2023-01-04T03:06:05.649Z,7.20
2023-01-04T03:08:36.721Z,7.20
2023-01-04T03:11:05.735Z,7.20
2023-01-04T03:17:24.318Z,7.20
2023-01-04T03:19:57.259Z,7.20
2023-01-04T03:22:52.742Z,7.20
2023-01-04T03:25:52.770Z,7.30
2023-01-04T03:28:40.200Z,7.30
2023-01-04T03:31:37.875Z,7.20
2023-01-04T03:34:24.040Z,7.30
2023-01-04T03:37:14.200Z,7.30
2023-01-04T03:40:22.269Z,7.40
2023-01-04T03:43:19.760Z,7.40
2023-01-04T03:46:21.752Z,7.30
2023-01-04T03:49:22.548Z,7.40
2023-01-04T03:51:52.363Z,7.40
2023-01-04T03:54:41.113Z,7.40
2023-01-04T03:57:09.200Z,7.40
2023-01-04T03:59:53.661Z,7.40
2023-01-04T04:02:28.372Z,7.50
2023-01-04T04:05:14.135Z,7.50
2023-01-04T04:07:59.546Z,7.60
2023-01-04T04:10:26.387Z,7.60
2023-01-04T04:12:53.300Z,7.60
2023-01-04T04:15:20.186Z,7.60
2023-01-04T04:17:46.993Z,7.60
2023-01-04T04:20:13.949Z,7.70
2023-01-04T04:22:41.293Z,7.60
2023-01-04T04:25:09.143Z,7.70
2023-01-04T04:27:35.973Z,7.70
2023-01-04T04:30:03.162Z,7.70
2023-01-04T04:32:30.043Z,7.60
2023-01-04T04:34:56.857Z,7.70
2023-01-04T04:37:23.688Z,7.70
2023-01-04T04:39:50.565Z,7.70
2023-01-04T04:42:17.388Z,7.70
2023-01-04T04:44:44.248Z,7.70
2023-01-04T04:47:11.095Z,7.70
2023-01-04T04:49:37.975Z,7.70
2023-01-04T04:52:04.927Z,7.80
2023-01-04T04:54:31.783Z,7.80
2023-01-04T04:56:58.640Z,7.80
2023-01-04T04:59:25.553Z,7.90
2023-01-04T05:01:52.713Z,7.90
2023-01-04T05:04:19.970Z,7.90
2023-01-04T05:06:48.096Z,7.90
2023-01-04T05:09:15.816Z,7.90
2023-01-04T05:12:01.675Z,7.90
2023-01-04T05:14:28.598Z,8.00
2023-01-04T05:16:55.672Z,7.90
2023-01-04T05:19:22.500Z,8.00
2023-01-04T05:21:49.387Z,8.00
2023-01-04T05:24:16.340Z,8.00
2023-01-04T05:26:43.189Z,8.00
2023-01-04T05:29:30.074Z,8.00
2023-01-04T05:31:57.035Z,8.00
2023-01-04T05:34:24.054Z,8.10
2023-01-04T05:36:50.968Z,8.00
2023-01-04T05:39:17.820Z,8.10
2023-01-04T05:42:03.986Z,8.10
2023-01-04T05:44:30.900Z,8.10
2023-01-04T05:46:57.763Z,8.10
2023-01-04T05:49:24.613Z,8.10
2023-01-04T05:51:51.468Z,8.20
2023-01-04T05:54:21.535Z,8.30
2023-01-04T05:56:48.765Z,8.30
2023-01-04T05:59:16.215Z,8.30
2023-01-04T06:01:43.191Z,8.50
2023-01-04T06:04:10.352Z,8.60
2023-01-04T06:06:37.277Z,8.70
2023-01-04T06:09:04.154Z,8.60
2023-01-04T06:11:30.972Z,8.60
2023-01-04T06:13:58.137Z,8.60
2023-01-04T06:16:25.074Z,8.60
2023-01-04T06:18:52.044Z,8.60
2023-01-04T06:21:18.971Z,8.60
2023-01-04T06:23:45.906Z,8.60
2023-01-04T06:26:13.057Z,8.60
2023-01-04T06:28:41.206Z,8.60
2023-01-04T06:31:09.435Z,8.60
2023-01-04T06:33:36.760Z,8.60
2023-01-04T06:36:03.952Z,8.70
2023-01-04T06:38:32.011Z,8.70
2023-01-04T06:40:58.900Z,8.70
2023-01-04T06:43:25.905Z,8.70
2023-01-04T06:45:53.014Z,8.80
2023-01-04T06:48:19.957Z,8.80
2023-01-04T06:50:46.813Z,8.80
2023-01-04T06:53:13.662Z,8.90
2023-01-04T06:55:40.602Z,8.80
2023-01-04T06:58:07.416Z,8.90
2023-01-04T07:00:34.325Z,9.00
2023-01-04T07:03:14.203Z,9.00
2023-01-04T07:05:43.095Z,9.10
2023-01-04T07:08:12.345Z,9.10
2023-01-04T07:10:39.506Z,9.10
2023-01-04T07:13:07.156Z,9.10
2023-01-04T07:15:39.424Z,9.20
2023-01-04T07:18:10.637Z,9.10
2023-01-04T07:20:38.488Z,9.10
2023-01-04T07:23:06.618Z,9.20
2023-01-04T07:25:33.741Z,9.20
2023-01-04T07:28:00.972Z,9.20
2023-01-04T07:30:28.239Z,9.30
2023-01-04T07:32:56.105Z,9.30
2023-01-04T07:35:24.153Z,9.30
2023-01-04T07:37:57.820Z,9.30
2023-01-04T07:40:26.544Z,9.30
2023-01-04T07:42:58.409Z,9.30
2023-01-04T07:45:26.348Z,9.40
2023-01-04T07:47:53.774Z,9.40
2023-01-04T07:50:20.620Z,9.50
2023-01-04T07:52:47.504Z,9.50
2023-01-04T07:55:14.334Z,9.50
2023-01-04T07:57:41.202Z,9.50
2023-01-04T08:00:08.965Z,9.60
2023-01-04T08:02:38.976Z,9.60
2023-01-04T08:05:06.461Z,9.60
2023-01-04T08:07:33.513Z,9.60
2023-01-04T08:10:00.345Z,9.50
2023-01-04T08:12:27.394Z,9.50
2023-01-04T08:14:54.293Z,9.50
2023-01-04T08:17:21.176Z,9.50
2023-01-04T08:19:48.018Z,9.50
2023-01-04T08:22:14.870Z,9.50
2023-01-04T08:24:42.237Z,9.50
2023-01-04T08:27:10.983Z,9.50
2023-01-04T08:29:38.633Z,9.40
2023-01-04T08:32:05.971Z,9.40
2023-01-04T08:34:32.850Z,9.40
2023-01-04T08:36:59.797Z,9.30
2023-01-04T08:39:29.504Z,9.30
2023-01-04T08:41:58.820Z,9.30
2023-01-04T08:44:29.794Z,9.30
2023-01-04T08:46:56.937Z,9.30
2023-01-04T08:49:24.725Z,9.30
2023-01-04T08:51:51.899Z,9.30
2023-01-04T08:54:18.950Z,9.40
2023-01-04T08:56:45.773Z,9.40
2023-01-04T08:59:13.948Z,9.40
2023-01-04T09:01:41.284Z,9.40
2023-01-04T09:04:08.764Z,9.40
2023-01-04T09:06:36.723Z,9.60
2023-01-04T09:09:03.951Z,9.60
2023-01-04T09:11:30.869Z,9.70
2023-01-04T09:14:06.698Z,9.60
2023-01-04T09:16:35.150Z,9.90
2023-01-04T09:19:02.146Z,9.80
2023-01-04T09:21:29.324Z,9.80
2023-01-04T09:23:58.267Z,9.80
2023-01-04T09:26:25.224Z,9.80
2023-01-04T09:28:54.398Z,9.80
2023-01-04T09:31:27.328Z,9.90
2023-01-04T09:36:42.601Z,9.90
2023-01-04T09:39:14.805Z,9.90
2023-01-04T09:41:53.004Z,10.00
2023-01-04T09:45:21.843Z,9.90
2023-01-04T09:47:43.780Z,9.90
2023-01-04T09:50:20.914Z,9.80
2023-01-04T09:53:00.593Z,9.80
2023-01-04T09:55:57.537Z,9.80
2023-01-04T09:58:34.481Z,9.80
2023-01-04T10:01:15.336Z,9.80
2023-01-04T10:03:51.935Z,9.80
2023-01-04T10:06:18.784Z,9.80
2023-01-04T10:08:45.752Z,9.80
2023-01-04T10:11:37.077Z,9.70
2023-01-04T10:14:44.769Z,9.70
2023-01-04T10:18:10.302Z,9.70
2023-01-04T10:23:42.020Z,9.70
2023-01-04T10:26:15.468Z,9.80
2023-01-04T10:28:51.345Z,9.70
2023-01-04T10:31:39.808Z,9.90
2023-01-04T10:34:27.979Z,9.90
2023-01-04T10:37:00.031Z,9.90
2023-01-04T10:39:33.648Z,9.90
2023-01-04T10:42:14.508Z,9.90
2023-01-04T10:44:54.223Z,9.90
2023-01-04T10:47:34.114Z,9.90
2023-01-04T10:50:08.789Z,9.80
2023-01-04T10:52:43.277Z,9.90
2023-01-04T10:55:27.314Z,9.90
2023-01-04T10:58:10.983Z,9.90
2023-01-04T11:00:50.892Z,9.80
2023-01-04T11:03:46.408Z,9.90
2023-01-04T11:06:17.990Z,9.90
2023-01-04T11:08:56.208Z,9.90
2023-01-04T11:11:31.309Z,9.90
2023-01-04T11:14:00.159Z,9.90
2023-01-04T11:16:29.677Z,9.90
2023-01-04T11:18:56.756Z,9.90
2023-01-04T11:21:27.782Z,10.00
2023-01-04T11:24:22.030Z,9.90
2023-01-04T11:26:48.534Z,10.00
2023-01-04T11:29:58.360Z,10.00
2023-01-04T11:32:52.137Z,10.00
2023-01-04T11:35:42.311Z,10.10
2023-01-04T11:38:21.439Z,10.10
2023-01-04T11:40:58.831Z,10.00
2023-01-04T11:43:27.712Z,10.10
2023-01-04T11:45:55.779Z,10.10
2023-01-04T11:48:43.757Z,10.10
2023-01-04T11:51:36.193Z,10.10
2023-01-04T11:54:13.878Z,10.10
2023-01-04T11:56:58.333Z,10.10
2023-01-04T11:59:25.917Z,10.10
2023-01-04T12:02:11.431Z,10.10
2023-01-04T12:04:38.545Z,10.10
2023-01-04T12:07:20.030Z,10.10
2023-01-04T12:09:46.942Z,10.20
2023-01-04T12:12:15.970Z,10.20
2023-01-04T12:14:50.244Z,10.20
2023-01-04T12:17:26.009Z,10.20
2023-01-04T12:19:56.176Z,10.30
2023-01-04T12:22:26.064Z,10.30
2023-01-04T12:25:00.467Z,10.30
2023-01-04T12:27:28.175Z,10.30
2023-01-04T12:30:00.811Z,10.40
2023-01-04T12:32:27.606Z,10.40
2023-01-04T12:34:54.943Z,10.40
2023-01-04T12:37:46.142Z,10.40
2023-01-04T12:40:46.863Z,10.40
2023-01-04T12:43:16.585Z,10.40
2023-01-04T12:45:44.868Z,10.40
2023-01-04T12:48:48.716Z,10.50
2023-01-04T12:51:32.928Z,10.40
2023-01-04T12:54:06.145Z,10.50
2023-01-04T12:57:11.737Z,10.50
2023-01-04T12:59:58.943Z,10.50
2023-01-04T13:02:32.315Z,10.60
2023-01-04T13:05:53.402Z,10.60
2023-01-04T13:07:56.981Z,10.60
2023-01-04T13:10:43.682Z,10.60
2023-01-04T13:13:38.690Z,10.60
2023-01-04T13:16:20.302Z,10.60
2023-01-04T13:18:50.999Z,10.60
2023-01-04T13:21:29.844Z,10.60
2023-01-04T13:24:24.594Z,10.70
2023-01-04T13:26:52.851Z,10.70
2023-01-04T13:29:31.045Z,10.70
2023-01-04T13:32:01.065Z,10.70
2023-01-04T13:34:36.429Z,10.80
2023-01-04T13:37:07.232Z,10.80
2023-01-04T13:39:35.729Z,10.80
2023-01-04T13:42:03.706Z,10.90
2023-01-04T13:45:19.249Z,10.90
2023-01-04T13:47:42.820Z,10.90
2023-01-04T13:50:37.457Z,10.90
2023-01-04T13:53:07.890Z,11.00
2023-01-04T13:55:39.104Z,11.10
2023-01-04T13:58:07.614Z,11.00
2023-01-04T14:01:05.758Z,11.00
2023-01-04T14:03:49.510Z,11.00
2023-01-04T14:06:24.636Z,11.10
2023-01-04T14:09:01.920Z,11.10
2023-01-04T14:14:58.695Z,11.10
2023-01-04T14:17:55.794Z,11.30
2023-01-04T14:20:23.386Z,11.30
2023-01-04T14:22:53.208Z,11.30
2023-01-04T14:25:38.415Z,11.40
2023-01-04T14:28:24.885Z,11.40
2023-01-04T14:30:56.693Z,11.60
2023-01-04T14:33:32.836Z,11.60
2023-01-04T14:36:20.847Z,11.50
2023-01-04T14:39:08.869Z,11.50
2023-01-04T14:41:42.725Z,11.60
2023-01-04T14:44:18.012Z,11.60
2023-01-04T14:46:48.225Z,11.60
2023-01-04T14:49:15.580Z,11.70
2023-01-04T14:51:49.660Z,11.60
2023-01-04T14:54:24.237Z,11.60
2023-01-04T14:56:53.208Z,11.60
2023-01-04T14:59:23.645Z,11.50
2023-01-04T15:01:55.552Z,11.50
2023-01-04T15:04:23.207Z,11.50
2023-01-04T15:06:51.461Z,11.60
2023-01-04T15:09:18.385Z,11.70
2023-01-04T15:11:45.321Z,11.70
2023-01-04T15:14:12.777Z,11.70
2023-01-04T15:16:39.725Z,11.80
2023-01-04T15:19:06.595Z,11.80
2023-01-04T15:21:40.317Z,11.80
2023-01-04T15:24:08.359Z,11.80
2023-01-04T15:26:36.056Z,11.80
2023-01-04T15:29:04.296Z,11.90
2023-01-04T15:31:38.327Z,11.90
2023-01-04T15:34:06.194Z,12.00
2023-01-04T15:36:38.533Z,11.90
2023-01-04T15:39:05.702Z,12.00
2023-01-04T15:41:51.568Z,12.00
2023-01-04T15:44:18.397Z,12.00
2023-01-04T15:46:45.460Z,12.10
2023-01-04T15:49:17.218Z,12.00
2023-01-04T15:51:45.325Z,12.00
2023-01-04T15:54:12.512Z,12.00
2023-01-04T15:56:40.430Z,12.00
2023-01-04T15:59:07.307Z,11.90
2023-01-04T16:01:34.510Z,11.80
2023-01-04T16:04:03.130Z,11.80
2023-01-04T16:06:30.068Z,11.80
2023-01-04T16:08:58.935Z,11.90
2023-01-04T16:11:26.114Z,11.90
2023-01-04T16:13:53.790Z,11.90
2023-01-04T16:16:23.080Z,11.90
2023-01-04T16:18:52.903Z,11.90
2023-01-04T16:21:28.099Z,11.90
2023-01-04T16:24:05.148Z,11.90
2023-01-04T16:26:37.049Z,12.00
2023-01-04T16:29:04.652Z,11.90
2023-01-04T16:31:36.888Z,11.80
2023-01-04T16:34:04.686Z,11.90
2023-01-04T16:36:31.568Z,11.80
2023-01-04T16:38:58.542Z,11.80
2023-01-04T16:41:28.246Z,11.90
2023-01-04T16:43:58.879Z,11.90
2023-01-04T16:46:27.094Z,11.90
2023-01-04T16:49:20.558Z,12.00
2023-01-04T16:51:47.487Z,12.00
2023-01-04T16:54:16.991Z,12.10
2023-01-04T16:56:45.567Z,11.90
2023-01-04T16:59:16.101Z,11.90
2023-01-04T17:01:49.959Z,12.10
2023-01-04T17:04:18.975Z,12.00
2023-01-04T17:06:47.081Z,11.90
2023-01-04T17:09:16.604Z,11.80
2023-01-04T17:12:46.252Z,11.80
2023-01-04T17:14:43.924Z,11.80
2023-01-04T17:17:11.000Z,11.80
2023-01-04T17:19:37.917Z,11.70
2023-01-04T17:22:04.873Z,11.60
2023-01-04T17:24:31.739Z,11.50
2023-01-04T17:26:59.462Z,11.40
2023-01-04T17:29:26.273Z,11.30
2023-01-04T17:31:53.173Z,11.30
2023-01-04T17:34:23.323Z,11.30
2023-01-04T17:36:50.523Z,11.40
2023-01-04T17:39:19.317Z,11.40
2023-01-04T17:41:46.358Z,11.50
2023-01-04T17:44:13.168Z,11.50
2023-01-04T17:46:40.101Z,11.60
2023-01-04T17:49:22.292Z,11.80
2023-01-04T17:51:51.015Z,11.80
2023-01-04T17:54:19.465Z,11.80
2023-01-04T17:56:46.243Z,11.70
2023-01-04T17:59:13.179Z,11.80
2023-01-04T18:01:41.175Z,11.80
2023-01-04T18:04:09.252Z,11.80
2023-01-04T18:06:37.283Z,11.70
2023-01-04T18:09:06.667Z,11.70
2023-01-04T18:11:34.092Z,11.70
2023-01-04T18:14:04.257Z,11.70
2023-01-04T18:16:55.117Z,11.70
2023-01-04T18:19:26.608Z,11.80
2023-01-04T18:21:53.676Z,11.80
2023-01-04T18:24:37.763Z,11.90
2023-01-04T18:27:24.345Z,11.90
2023-01-04T18:29:53.684Z,11.90
2023-01-04T18:32:21.488Z,11.90
2023-01-04T18:34:48.390Z,11.90
2023-01-04T18:37:16.168Z,11.90
2023-01-04T18:39:43.674Z,11.90
2023-01-04T18:42:10.510Z,11.90
2023-01-04T18:44:45.622Z,11.90
2023-01-04T18:47:13.796Z,12.00
2023-01-04T18:49:40.738Z,12.00
2023-01-04T18:52:07.540Z,12.00
2023-01-04T18:54:34.373Z,12.00
2023-01-04T18:57:01.815Z,11.90
2023-01-04T18:59:32.937Z,12.00
2023-01-04T19:02:02.013Z,12.00
2023-01-04T19:04:34.906Z,11.90
2023-01-04T19:07:02.349Z,12.00
2023-01-04T19:09:29.313Z,12.00
2023-01-04T19:11:56.319Z,12.00
2023-01-04T19:14:23.112Z,11.90
2023-01-04T19:16:50.080Z,11.70
2023-01-04T19:19:17.353Z,11.60
2023-01-04T19:21:44.889Z,11.50
2023-01-04T19:24:11.864Z,11.50
2023-01-04T19:26:39.169Z,11.50
2023-01-04T19:29:08.317Z,11.50
2023-01-04T19:31:35.397Z,11.60
2023-01-04T19:34:02.558Z,11.70
2023-01-04T19:36:29.565Z,11.60
2023-01-04T19:38:57.517Z,11.70
2023-01-04T19:41:33.452Z,11.80
2023-01-04T19:44:06.202Z,11.80
2023-01-04T19:46:33.062Z,11.80
2023-01-04T19:48:59.950Z,11.90
2023-01-04T19:51:28.059Z,11.80
2023-01-04T19:53:57.078Z,11.80
2023-01-04T19:56:23.996Z,11.80
2023-01-04T19:58:50.807Z,11.80
2023-01-04T20:01:19.975Z,11.80
2023-01-04T20:03:47.750Z,11.80
2023-01-04T20:06:15.243Z,11.80
2023-01-04T20:08:42.814Z,11.70
2023-01-04T20:11:11.212Z,11.80
2023-01-04T20:13:38.889Z,11.80
2023-01-04T20:16:06.344Z,11.80
2023-01-04T20:18:34.120Z,11.60
2023-01-04T20:21:01.148Z,11.40
2023-01-04T20:23:28.093Z,11.00
2023-01-04T20:25:55.289Z,10.90
2023-01-04T20:28:24.726Z,10.70
2023-01-04T20:31:06.124Z,10.70
2023-01-04T20:33:33.393Z,10.80
2023-01-04T20:36:09.103Z,10.80
2023-01-04T20:38:40.620Z,10.70
2023-01-04T20:41:08.932Z,10.80
2023-01-04T20:43:37.290Z,10.70
2023-01-04T20:46:09.720Z,10.80
2023-01-04T20:48:36.637Z,10.80
2023-01-04T20:51:08.876Z,10.80
2023-01-04T20:53:36.861Z,10.80
2023-01-04T20:56:09.750Z,10.80
2023-01-04T20:58:37.039Z,10.80
2023-01-04T21:01:05.965Z,10.90
2023-01-04T21:03:33.777Z,11.00
2023-01-04T21:06:02.794Z,11.00
2023-01-04T21:08:30.592Z,11.00
2023-01-04T21:10:57.941Z,11.00
2023-01-04T21:13:25.051Z,11.00
2023-01-04T21:15:51.985Z,11.00
2023-01-04T21:18:19.041Z,11.00
2023-01-04T21:20:46.133Z,11.00
2023-01-04T21:23:18.892Z,11.00
2023-01-04T21:25:46.124Z,11.00
2023-01-04T21:28:13.866Z,11.00
2023-01-04T21:30:45.139Z,11.00
2023-01-04T21:33:13.519Z,11.00
2023-01-04T21:35:40.905Z,11.10
2023-01-04T21:38:09.253Z,11.10
2023-01-04T21:40:38.477Z,11.10
2023-01-04T21:43:05.541Z,11.10
2023-01-04T21:45:32.595Z,11.00
2023-01-04T21:47:59.448Z,11.10
2023-01-04T21:50:30.563Z,11.10
2023-01-04T21:52:58.697Z,11.30
2023-01-04T21:55:29.540Z,11.20
2023-01-04T21:58:00.380Z,11.20
2023-01-04T22:00:27.327Z,11.20
2023-01-04T22:02:54.315Z,11.20
2023-01-04T22:05:21.277Z,11.20
2023-01-04T22:07:48.151Z,11.30
2023-01-04T22:10:15.339Z,11.20
2023-01-04T22:12:42.151Z,11.20
2023-01-04T22:15:09.341Z,11.10
2023-01-04T22:17:36.316Z,11.10
2023-01-04T22:20:03.345Z,11.20
2023-01-04T22:22:30.926Z,11.10
2023-01-04T22:24:57.814Z,11.20
2023-01-04T22:27:24.732Z,11.10
2023-01-04T22:29:51.546Z,11.10
2023-01-04T22:32:18.474Z,11.10
2023-01-04T22:34:45.325Z,11.10
2023-01-04T22:37:12.649Z,11.00
2023-01-04T22:39:39.544Z,11.10
2023-01-04T22:42:06.430Z,11.10
2023-01-04T22:44:33.379Z,11.10
2023-01-04T22:47:00.355Z,11.20
2023-01-04T22:49:27.361Z,11.10
2023-01-04T22:51:55.883Z,11.20
2023-01-04T22:54:22.834Z,11.10
2023-01-04T22:56:50.104Z,11.10
2023-01-04T22:59:17.033Z,11.10
2023-01-04T23:01:44.014Z,11.10
2023-01-04T23:04:15.367Z,11.10
2023-01-04T23:06:42.547Z,11.00
2023-01-04T23:09:11.883Z,10.90
2023-01-04T23:11:39.004Z,10.70
2023-01-04T23:14:08.133Z,10.70
2023-01-04T23:16:35.110Z,10.60
2023-01-04T23:19:02.904Z,10.50
2023-01-04T23:21:30.718Z,10.30
2023-01-04T23:23:58.091Z,10.20
2023-01-04T23:26:29.814Z,10.20
2023-01-04T23:28:56.928Z,10.10
2023-01-04T23:31:25.332Z,10.10
2023-01-04T23:33:56.399Z,10.10
2023-01-04T23:36:26.522Z,10.00
2023-01-04T23:38:56.112Z,10.00
2023-01-04T23:41:47.001Z,10.10
2023-01-04T23:44:24.414Z,10.20
2023-01-04T23:46:59.807Z,10.20
2023-01-04T23:49:29.015Z,10.30
2023-01-04T23:51:56.605Z,10.20
2023-01-04T23:54:23.862Z,10.30
2023-01-04T23:56:51.234Z,10.30
2023-01-04T23:59:18.527Z,10.30
